Time;durP1;ratioP1;P1;durP2;ratioP2;P2;SDS_P1;SDS_P2;PMS_P1;PMS_P2;Temp;Humidity;BMP_temperature;BMP_pressure;BME280_temperature;BME280_humidity;BME280_pressure;Samples;Min_cycle;Max_cycle;Signal;HPM_P1;HPM_P2
2021/05/12 00:00:39;;;;;;;12.90;3.50;;;;;;;;;;5120079;28;20035;-92
2021/05/12 00:03:05;;;;;;;11.77;4.22;;;;;;;;;;5120008;28;20086;-92
2021/05/12 00:05:31;;;;;;;10.38;3.03;;;;;;;;;;5138058;27;20020;-92
2021/05/12 00:07:57;;;;;;;12.32;3.22;;;;;;;;;;5141906;27;20076;-93
2021/05/12 00:10:23;;;;;;;16.42;3.60;;;;;;;;;;5140371;27;20059;-91
2021/05/12 00:12:50;;;;;;;12.45;3.25;;;;;;;;;;5141950;27;20029;-92
2021/05/12 00:15:17;;;;;;;9.13;2.92;;;;;;;;;;5141609;27;20015;-90
2021/05/12 00:17:46;;;;;;;20.10;4.50;;;;;;;;;;5142694;27;20027;-92
2021/05/12 00:20:15;;;;;;;26.55;8.15;;;;;;;;;;5140590;27;20478;-89
2021/05/12 00:22:53;;;;;;;15.52;3.65;;;;;;;;;;5140934;27;20031;-89
2021/05/12 00:25:19;;;;;;;15.18;4.00;;;;;;;;;;5141725;27;20023;-90
2021/05/12 00:27:45;;;;;;;9.25;3.05;;;;;;;;;;5141487;27;20019;-91
2021/05/12 00:30:13;;;;;;;17.25;3.40;;;;;;;;;;5141546;27;20030;-90
2021/05/12 00:32:41;;;;;;;20.27;4.80;;;;;;;;;;5141600;27;20339;-90
2021/05/12 00:35:08;;;;;;;14.35;4.90;;;;;;;;;;5141695;27;20102;-90
2021/05/12 00:37:34;;;;;;;16.33;7.18;;;;;;;;;;5139652;27;20015;-90
2021/05/12 00:40:00;;;;;;;16.23;4.70;;;;;;;;;;5141281;27;20020;-91
2021/05/12 00:42:30;;;;;;;11.10;3.08;;;;;;;;;;5140407;27;20113;-90
2021/05/12 00:44:56;;;;;;;21.58;6.93;;;;;;;;;;5141277;27;20064;-89
2021/05/12 00:47:27;;;;;;;7.43;3.20;;;;;;;;;;5140943;27;20512;-89
2021/05/12 00:49:53;;;;;;;14.98;5.05;;;;;;;;;;5141340;27;20054;-90
2021/05/12 00:52:20;;;;;;;13.52;3.63;;;;;;;;;;5140968;27;20394;-90
2021/05/12 00:54:46;;;;;;;9.40;3.55;;;;;;;;;;5141131;27;20028;-90
2021/05/12 00:57:12;;;;;;;12.93;5.82;;;;;;;;;;5139797;27;20043;-90
2021/05/12 00:59:38;;;;;;;9.48;3.75;;;;;;;;;;5140870;27;20015;-91
2021/05/12 01:02:07;;;;;;;14.27;6.30;;;;;;;;;;5140868;27;20053;-91
2021/05/12 01:04:52;;;;;;;7.60;3.40;;;;;;;;;;5139896;27;20023;-89
2021/05/12 01:07:18;;;;;;;9.02;3.17;;;;;;;;;;5139856;27;20118;-91
2021/05/12 01:09:44;;;;;;;8.52;3.80;;;;;;;;;;5140993;27;20051;-91
2021/05/12 01:12:10;;;;;;;8.13;3.30;;;;;;;;;;5139568;27;20031;-91
2021/05/12 01:14:36;;;;;;;5.38;2.40;;;;;;;;;;5140385;27;20020;-90
2021/05/12 01:17:02;;;;;;;8.75;3.65;;;;;;;;;;5139620;27;20027;-92
2021/05/12 01:19:48;;;;;;;9.32;4.85;;;;;;;;;;5140430;27;20027;-92
2021/05/12 01:22:14;;;;;;;5.50;3.33;;;;;;;;;;5140383;27;20030;-91
2021/05/12 01:24:40;;;;;;;9.00;3.90;;;;;;;;;;5141167;27;20098;-94
2021/05/12 01:27:08;;;;;;;10.48;6.93;;;;;;;;;;5143962;27;20023;-93
2021/05/12 01:29:34;;;;;;;7.53;2.67;;;;;;;;;;5144423;27;20027;-94
2021/05/12 01:32:03;;;;;;;17.58;4.75;;;;;;;;;;5143812;27;20044;-95
2021/05/12 01:34:29;;;;;;;9.18;5.05;;;;;;;;;;5146200;27;20019;-95
2021/05/12 01:36:57;;;;;;;8.43;3.90;;;;;;;;;;5146207;27;20023;-95
2021/05/12 01:39:23;;;;;;;7.93;2.33;;;;;;;;;;5150948;27;20038;-95
2021/05/12 01:41:49;;;;;;;4.55;2.40;;;;;;;;;;5156157;27;20023;-95
2021/05/12 01:44:16;;;;;;;4.80;2.85;;;;;;;;;;5156802;27;20007;-96
2021/05/12 01:46:47;;;;;;;6.15;3.33;;;;;;;;;;5155794;27;20068;-95
2021/05/12 01:49:14;;;;;;;8.57;3.00;;;;;;;;;;5156490;27;20045;-94
2021/05/12 01:51:41;;;;;;;6.22;2.40;;;;;;;;;;5150483;27;20088;-95
2021/05/12 01:54:08;;;;;;;9.65;2.70;;;;;;;;;;5138862;27;20021;-94
2021/05/12 01:56:35;;;;;;;8.75;2.17;;;;;;;;;;5139759;27;20030;-92
2021/05/12 01:59:01;;;;;;;11.35;2.70;;;;;;;;;;5138609;27;20044;-93
2021/05/12 02:01:28;;;;;;;7.20;2.42;;;;;;;;;;5139798;27;20015;-94
2021/05/12 02:03:54;;;;;;;3.85;2.72;;;;;;;;;;5138289;27;20030;-95
2021/05/12 02:06:20;;;;;;;7.50;3.13;;;;;;;;;;5138370;27;20099;-94
2021/05/12 02:08:47;;;;;;;9.13;2.58;;;;;;;;;;5139454;27;20027;-95
2021/05/12 02:11:13;;;;;;;4.90;1.60;;;;;;;;;;5138608;27;20019;-96
2021/05/12 02:13:39;;;;;;;6.72;2.05;;;;;;;;;;5139408;27;20092;-94
2021/05/12 02:16:06;;;;;;;5.95;2.47;;;;;;;;;;5138511;27;20030;-91
2021/05/12 02:18:32;;;;;;;7.18;2.55;;;;;;;;;;5138651;27;20027;-91
2021/05/12 02:20:58;;;;;;;4.47;2.30;;;;;;;;;;5139134;27;20019;-93
2021/05/12 02:23:25;;;;;;;5.45;3.25;;;;;;;;;;5139719;27;20023;-92
2021/05/12 02:25:51;;;;;;;7.00;2.47;;;;;;;;;;5139233;27;20072;-92
2021/05/12 02:28:17;;;;;;;6.43;2.45;;;;;;;;;;5139170;27;20404;-92
2021/05/12 02:30:44;;;;;;;11.88;3.17;;;;;;;;;;5139256;27;20122;-92
2021/05/12 02:33:10;;;;;;;3.53;1.90;;;;;;;;;;5138837;27;20023;-92
2021/05/12 02:35:36;;;;;;;7.28;2.47;;;;;;;;;;5139195;27;20053;-92
2021/05/12 02:38:03;;;;;;;4.10;2.08;;;;;;;;;;5138956;27;20106;-92
2021/05/12 02:40:29;;;;;;;7.30;1.98;;;;;;;;;;5139034;27;20042;-93
2021/05/12 02:42:56;;;;;;;7.80;2.53;;;;;;;;;;5139312;27;20030;-92
2021/05/12 02:45:22;;;;;;;5.47;2.30;;;;;;;;;;5139101;27;20027;-92
2021/05/12 02:47:58;;;;;;;6.00;2.47;;;;;;;;;;5138565;27;20073;-92
2021/05/12 02:50:29;;;;;;;4.35;2.40;;;;;;;;;;5138030;27;20034;-91
2021/05/12 02:52:56;;;;;;;5.35;2.08;;;;;;;;;;5138874;27;20409;-92
2021/05/12 02:55:23;;;;;;;5.85;1.85;;;;;;;;;;5138694;27;20032;-91
2021/05/12 02:57:49;;;;;;;6.15;2.60;;;;;;;;;;5138603;27;20019;-92
2021/05/12 03:00:17;;;;;;;6.10;2.50;;;;;;;;;;5138521;27;20027;-92
2021/05/12 03:02:43;;;;;;;6.65;2.83;;;;;;;;;;5139065;27;20019;-92
2021/05/12 03:05:09;;;;;;;9.20;2.78;;;;;;;;;;5137696;27;20035;-90
2021/05/12 03:07:36;;;;;;;4.28;2.17;;;;;;;;;;5138668;28;20019;-91
2021/05/12 03:10:04;;;;;;;4.95;1.70;;;;;;;;;;5137480;28;20027;-90
2021/05/12 03:12:30;;;;;;;4.93;2.10;;;;;;;;;;5137750;28;20110;-90
2021/05/12 03:14:56;;;;;;;10.40;3.10;;;;;;;;;;5138823;28;20056;-91
2021/05/12 03:17:22;;;;;;;5.95;2.33;;;;;;;;;;5137697;28;20027;-90
2021/05/12 03:19:48;;;;;;;4.53;2.10;;;;;;;;;;5138674;28;20026;-90
2021/05/12 03:22:14;;;;;;;8.43;2.20;;;;;;;;;;5138548;28;20294;-90
2021/05/12 03:24:40;;;;;;;6.22;2.53;;;;;;;;;;5137704;28;20028;-93
2021/05/12 03:27:07;;;;;;;6.63;2.97;;;;;;;;;;5138472;28;20023;-93
2021/05/12 03:29:33;;;;;;;6.72;1.92;;;;;;;;;;5137651;28;20035;-93
2021/05/12 03:31:59;;;;;;;7.20;2.70;;;;;;;;;;5137496;28;20023;-94
2021/05/12 03:34:25;;;;;;;5.35;2.42;;;;;;;;;;5138194;28;20102;-93
2021/05/12 03:36:51;;;;;;;3.42;2.10;;;;;;;;;;5138743;28;20054;-91
2021/05/12 03:39:17;;;;;;;9.40;2.80;;;;;;;;;;5138704;28;20065;-91
2021/05/12 03:41:43;;;;;;;9.75;3.60;;;;;;;;;;5138585;28;20329;-93
2021/05/12 03:44:11;;;;;;;8.10;3.70;;;;;;;;;;5137415;28;20027;-91
2021/05/12 03:46:37;;;;;;;9.05;3.00;;;;;;;;;;5138408;27;20051;-92
2021/05/12 03:52:07;;;;;;;7.30;3.00;;;;;;;;;;5138420;28;20069;-92
2021/05/12 03:54:33;;;;;;;5.22;2.72;;;;;;;;;;5138600;28;20043;-93
2021/05/12 03:56:59;;;;;;;7.00;3.08;;;;;;;;;;5137378;28;20089;-92
2021/05/12 03:59:25;;;;;;;9.23;4.43;;;;;;;;;;5136892;28;20032;-93
2021/05/12 04:01:51;;;;;;;8.18;2.95;;;;;;;;;;5137325;28;20125;-91
2021/05/12 04:04:37;;;;;;;7.78;4.25;;;;;;;;;;5137968;28;20019;-90
2021/05/12 04:07:03;;;;;;;9.15;3.22;;;;;;;;;;5137290;28;20118;-90
2021/05/12 04:09:29;;;;;;;7.78;3.53;;;;;;;;;;5136940;28;20038;-90
2021/05/12 04:11:55;;;;;;;10.13;3.92;;;;;;;;;;5138191;27;20496;-90
2021/05/12 04:14:21;;;;;;;9.20;3.50;;;;;;;;;;5140850;27;20045;-89
2021/05/12 04:16:49;;;;;;;8.82;4.45;;;;;;;;;;5141108;27;20027;-90
2021/05/12 04:19:15;;;;;;;12.13;6.88;;;;;;;;;;5141816;27;20023;-90
2021/05/12 04:21:41;;;;;;;11.82;6.60;;;;;;;;;;5140685;27;20023;-92
2021/05/12 04:24:07;;;;;;;8.45;4.10;;;;;;;;;;5141891;27;20386;-91
2021/05/12 04:26:33;;;;;;;8.52;4.35;;;;;;;;;;5141570;27;20028;-91
2021/05/12 04:28:59;;;;;;;7.95;3.55;;;;;;;;;;5140682;27;20106;-93
2021/05/12 04:31:26;;;;;;;10.52;5.68;;;;;;;;;;5141820;27;20023;-89
2021/05/12 04:33:52;;;;;;;11.65;4.20;;;;;;;;;;5141781;27;20317;-89
2021/05/12 04:39:22;;;;;;;15.60;4.22;;;;;;;;;;5141424;27;20130;-86
2021/05/12 04:41:48;;;;;;;8.00;4.28;;;;;;;;;;5140337;27;20023;-86
2021/05/12 04:44:14;;;;;;;8.93;4.40;;;;;;;;;;5141459;27;20027;-87
2021/05/12 04:46:43;;;;;;;12.93;4.10;;;;;;;;;;5139857;27;20425;-86
2021/05/12 04:49:09;;;;;;;15.68;5.30;;;;;;;;;;5141023;27;20110;-87
2021/05/12 04:51:35;;;;;;;10.98;5.00;;;;;;;;;;5141135;27;20023;-87
2021/05/12 04:54:03;;;;;;;13.93;4.90;;;;;;;;;;5141064;27;20045;-86
2021/05/12 04:56:29;;;;;;;12.23;4.75;;;;;;;;;;5141086;27;20023;-86
2021/05/12 04:58:55;;;;;;;13.23;9.35;;;;;;;;;;5140928;27;20015;-86
2021/05/12 05:01:21;;;;;;;9.40;5.38;;;;;;;;;;5141132;27;20389;-86
2021/05/12 05:03:48;;;;;;;11.45;5.47;;;;;;;;;;5139808;27;20341;-86
2021/05/12 05:06:14;;;;;;;12.18;5.05;;;;;;;;;;5140675;27;20030;-86
2021/05/12 05:08:41;;;;;;;8.13;4.03;;;;;;;;;;5140611;27;20023;-87
2021/05/12 05:11:07;;;;;;;10.70;5.95;;;;;;;;;;5140636;27;20046;-86
2021/05/12 05:13:33;;;;;;;10.60;3.42;;;;;;;;;;5140606;27;20106;-86
2021/05/12 05:15:59;;;;;;;4.68;3.00;;;;;;;;;;5139577;27;20023;-87
2021/05/12 05:18:25;;;;;;;7.55;5.03;;;;;;;;;;5140311;27;20038;-85
2021/05/12 05:20:54;;;;;;;35.20;5.72;;;;;;;;;;5139247;27;20030;-86
2021/05/12 05:23:20;;;;;;;9.93;3.85;;;;;;;;;;5138894;27;20030;-86
2021/05/12 05:25:46;;;;;;;9.50;3.25;;;;;;;;;;5138799;27;20081;-86
2021/05/12 05:28:12;;;;;;;7.43;2.88;;;;;;;;;;5140093;27;20023;-86
2021/05/12 05:30:38;;;;;;;14.35;6.43;;;;;;;;;;5140302;27;20083;-86
2021/05/12 05:33:04;;;;;;;10.80;3.78;;;;;;;;;;5140079;27;20019;-86
2021/05/12 05:35:30;;;;;;;10.18;3.60;;;;;;;;;;5138988;27;20310;-87
2021/05/12 05:37:56;;;;;;;8.27;5.60;;;;;;;;;;5139988;27;20012;-86
2021/05/12 05:40:23;;;;;;;5.03;3.10;;;;;;;;;;5139997;27;20020;-86
2021/05/12 05:42:59;;;;;;;10.43;4.18;;;;;;;;;;5140024;27;20027;-86
2021/05/12 05:45:26;;;;;;;15.15;4.75;;;;;;;;;;5139822;27;20045;-86
2021/05/12 05:47:52;;;;;;;12.27;3.63;;;;;;;;;;5138593;27;20143;-86
2021/05/12 05:50:18;;;;;;;11.18;3.50;;;;;;;;;;5139741;27;20417;-86
2021/05/12 05:52:44;;;;;;;12.45;4.10;;;;;;;;;;5139930;27;20054;-86
2021/05/12 05:55:11;;;;;;;9.23;3.42;;;;;;;;;;5139685;27;20118;-86
2021/05/12 05:57:37;;;;;;;7.28;3.40;;;;;;;;;;5138620;27;20114;-86
2021/05/12 06:00:06;;;;;;;9.48;3.53;;;;;;;;;;5139593;27;20030;-85
2021/05/12 06:02:32;;;;;;;11.75;4.72;;;;;;;;;;5139379;27;20408;-85
2021/05/12 06:04:58;;;;;;;8.55;3.13;;;;;;;;;;5137896;27;20035;-85
2021/05/12 06:07:24;;;;;;;11.88;3.85;;;;;;;;;;5138397;27;20022;-85
2021/05/12 06:09:50;;;;;;;8.73;3.55;;;;;;;;;;5139572;27;20042;-85
2021/05/12 06:12:16;;;;;;;8.15;3.30;;;;;;;;;;5137845;27;20025;-82
2021/05/12 06:14:42;;;;;;;4.50;2.88;;;;;;;;;;5139151;27;20359;-82
2021/05/12 06:17:08;;;;;;;11.32;3.17;;;;;;;;;;5139246;27;20044;-82
2021/05/12 06:19:34;;;;;;;11.43;2.97;;;;;;;;;;5139091;27;20034;-82
2021/05/12 06:22:02;;;;;;;9.15;3.30;;;;;;;;;;5138757;27;20421;-86
2021/05/12 06:24:28;;;;;;;9.25;3.33;;;;;;;;;;5139266;27;20052;-84
2021/05/12 06:26:54;;;;;;;15.23;4.18;;;;;;;;;;5139206;27;20106;-83
2021/05/12 06:29:20;;;;;;;10.77;3.30;;;;;;;;;;5138074;27;20114;-83
2021/05/12 06:31:46;;;;;;;19.02;11.00;;;;;;;;;;5138818;27;20103;-83
2021/05/12 06:34:12;;;;;;;23.02;13.32;;;;;;;;;;5138391;27;20047;-82
2021/05/12 06:36:38;;;;;;;10.90;4.22;;;;;;;;;;5138965;27;20347;-82
2021/05/12 06:39:05;;;;;;;26.73;17.05;;;;;;;;;;5138825;27;20063;-82
2021/05/12 06:41:31;;;;;;;17.27;10.65;;;;;;;;;;5138580;27;20027;-82
2021/05/12 06:43:58;;;;;;;11.48;6.30;;;;;;;;;;5137738;27;20031;-83
2021/05/12 06:46:25;;;;;;;20.30;10.52;;;;;;;;;;5136646;27;20027;-82
2021/05/12 06:48:51;;;;;;;25.17;9.15;;;;;;;;;;5139105;27;20015;-82
2021/05/12 06:51:18;;;;;;;14.65;8.43;;;;;;;;;;5138427;27;20046;-83
2021/05/12 06:53:44;;;;;;;19.05;10.68;;;;;;;;;;5138539;27;20029;-83
2021/05/12 06:56:10;;;;;;;16.63;8.38;;;;;;;;;;5138310;27;20102;-82
2021/05/12 06:58:40;;;;;;;16.38;5.30;;;;;;;;;;5138409;27;20015;-82
2021/05/12 07:01:08;;;;;;;24.70;9.77;;;;;;;;;;5137131;27;20052;-83
2021/05/12 07:03:34;;;;;;;33.50;20.08;;;;;;;;;;5138523;27;20363;-83
2021/05/12 07:06:01;;;;;;;14.85;7.90;;;;;;;;;;5138372;27;20046;-82
2021/05/12 07:08:27;;;;;;;17.88;8.63;;;;;;;;;;5138725;27;20027;-82
2021/05/12 07:10:53;;;;;;;8.70;3.95;;;;;;;;;;5137003;28;20070;-83
2021/05/12 07:13:19;;;;;;;12.10;4.20;;;;;;;;;;5121539;28;20053;-83
2021/05/12 07:15:46;;;;;;;8.35;3.63;;;;;;;;;;5102253;28;20067;-82
2021/05/12 07:18:12;;;;;;;12.80;5.05;;;;;;;;;;5097259;28;20025;-84
2021/05/12 07:20:38;;;;;;;26.38;12.10;;;;;;;;;;5097372;28;20028;-85
2021/05/12 07:23:05;;;;;;;14.95;7.13;;;;;;;;;;5097669;28;20048;-85
2021/05/12 07:25:32;;;;;;;15.25;6.40;;;;;;;;;;5097246;28;20055;-85
2021/05/12 07:27:59;;;;;;;8.13;4.80;;;;;;;;;;5097262;28;20025;-85
2021/05/12 07:30:25;;;;;;;7.32;2.97;;;;;;;;;;5097579;28;20028;-86
2021/05/12 07:32:52;;;;;;;7.30;2.75;;;;;;;;;;5097113;28;20020;-85
2021/05/12 07:35:18;;;;;;;19.90;5.15;;;;;;;;;;5097142;28;20024;-85
2021/05/12 07:37:44;;;;;;;23.20;10.48;;;;;;;;;;5097382;28;20025;-85
2021/05/12 07:40:11;;;;;;;9.18;3.30;;;;;;;;;;5097363;28;20021;-86
2021/05/12 07:42:39;;;;;;;9.10;3.08;;;;;;;;;;5095698;28;20146;-86
2021/05/12 07:45:06;;;;;;;8.00;2.97;;;;;;;;;;5097268;28;20032;-86
2021/05/12 07:47:32;;;;;;;8.88;2.58;;;;;;;;;;5099155;28;20434;-85
2021/05/12 07:49:58;;;;;;;5.18;2.33;;;;;;;;;;5099975;28;20106;-85
2021/05/12 07:52:24;;;;;;;18.77;8.18;;;;;;;;;;5101072;28;20029;-86
2021/05/12 07:54:52;;;;;;;9.10;2.92;;;;;;;;;;5101254;28;20027;-85
2021/05/12 07:57:18;;;;;;;9.23;2.67;;;;;;;;;;5100786;28;20016;-85
2021/05/12 07:59:44;;;;;;;8.10;2.22;;;;;;;;;;5100941;28;20050;-85
2021/05/12 08:02:10;;;;;;;10.98;2.20;;;;;;;;;;5100939;28;20026;-85
2021/05/12 08:04:36;;;;;;;6.93;2.53;;;;;;;;;;5099347;28;20124;-85
2021/05/12 08:07:03;;;;;;;6.47;2.15;;;;;;;;;;5099752;28;20028;-85
2021/05/12 08:09:29;;;;;;;7.45;2.00;;;;;;;;;;5100885;28;20020;-85
2021/05/12 08:11:56;;;;;;;4.22;1.95;;;;;;;;;;5099528;28;20066;-85
2021/05/12 08:14:22;;;;;;;9.00;2.28;;;;;;;;;;5100493;28;20038;-85
2021/05/12 08:16:48;;;;;;;5.38;2.60;;;;;;;;;;5100614;28;20087;-86
2021/05/12 08:19:14;;;;;;;7.40;1.80;;;;;;;;;;5100537;28;20016;-85
2021/05/12 08:21:41;;;;;;;9.05;2.45;;;;;;;;;;5100269;28;20422;-85
2021/05/12 08:24:07;;;;;;;6.15;2.28;;;;;;;;;;5100596;28;20020;-85
2021/05/12 08:26:33;;;;;;;6.90;2.60;;;;;;;;;;5098886;28;20059;-85
2021/05/12 08:29:00;;;;;;;7.25;2.67;;;;;;;;;;5100349;28;20025;-85
2021/05/12 08:31:27;;;;;;;8.95;2.47;;;;;;;;;;5100205;28;20330;-85
2021/05/12 08:33:54;;;;;;;7.28;2.45;;;;;;;;;;5100287;28;20031;-85
2021/05/12 08:36:20;;;;;;;6.75;2.10;;;;;;;;;;5099192;28;20020;-85
2021/05/12 08:38:46;;;;;;;6.80;2.50;;;;;;;;;;5100015;28;20042;-85
2021/05/12 08:41:16;;;;;;;7.47;2.50;;;;;;;;;;5100425;28;20044;-85
2021/05/12 08:43:43;;;;;;;5.35;2.53;;;;;;;;;;5099936;28;20028;-85
2021/05/12 08:46:13;;;;;;;8.93;2.85;;;;;;;;;;5099979;28;20111;-86
2021/05/12 08:48:39;;;;;;;21.23;2.45;;;;;;;;;;5100042;28;20048;-84
2021/05/12 08:51:06;;;;;;;4.70;2.50;;;;;;;;;;5099880;28;20429;-85
2021/05/12 08:53:33;;;;;;;8.40;2.92;;;;;;;;;;5099774;28;20028;-86
2021/05/12 08:55:59;;;;;;;7.00;2.25;;;;;;;;;;5100020;28;20031;-86
2021/05/12 08:58:26;;;;;;;8.32;2.05;;;;;;;;;;5099488;28;20391;-85
2021/05/12 09:00:53;;;;;;;6.93;2.58;;;;;;;;;;5099640;28;20024;-86
2021/05/12 09:03:20;;;;;;;20.70;5.18;;;;;;;;;;5099812;28;20122;-86
2021/05/12 09:05:46;;;;;;;6.75;2.40;;;;;;;;;;5099630;28;20035;-86
2021/05/12 09:08:12;;;;;;;3.13;2.03;;;;;;;;;;5099673;28;20020;-85
2021/05/12 09:10:38;;;;;;;12.55;3.17;;;;;;;;;;5099623;28;20028;-86
2021/05/12 09:13:04;;;;;;;12.23;2.80;;;;;;;;;;5098428;28;20027;-88
2021/05/12 09:15:31;;;;;;;7.07;2.75;;;;;;;;;;5097958;28;20031;-85
2021/05/12 09:18:01;;;;;;;7.78;2.28;;;;;;;;;;5099321;28;20031;-85
2021/05/12 09:20:27;;;;;;;13.15;3.25;;;;;;;;;;5099381;28;20066;-88
2021/05/12 09:22:59;;;;;;;10.05;3.15;;;;;;;;;;5099401;28;20024;-86
2021/05/12 09:25:26;;;;;;;8.68;3.13;;;;;;;;;;5099404;28;20024;-87
2021/05/12 09:27:52;;;;;;;7.35;2.47;;;;;;;;;;5099281;28;20066;-86
2021/05/12 09:30:25;;;;;;;7.70;2.95;;;;;;;;;;5098994;28;20079;-85
2021/05/12 09:32:51;;;;;;;8.45;2.65;;;;;;;;;;5099303;28;20028;-86
2021/05/12 09:35:22;;;;;;;6.78;2.50;;;;;;;;;;5099315;28;20022;-86
2021/05/12 09:37:49;;;;;;;7.55;2.60;;;;;;;;;;5099183;28;20016;-89
2021/05/12 09:40:15;;;;;;;7.65;3.10;;;;;;;;;;5098130;28;20046;-85
2021/05/12 09:42:42;;;;;;;10.82;2.78;;;;;;;;;;5099256;28;20024;-88
2021/05/12 09:45:13;;;;;;;7.35;2.70;;;;;;;;;;5098991;28;20024;-88
2021/05/12 09:47:39;;;;;;;13.85;2.92;;;;;;;;;;5099011;28;20109;-88
2021/05/12 09:50:14;;;;;;;8.65;2.70;;;;;;;;;;5098950;28;20425;-88
2021/05/12 09:52:41;;;;;;;5.85;2.50;;;;;;;;;;5097705;28;20039;-88
2021/05/12 09:55:08;;;;;;;3.58;2.35;;;;;;;;;;5098772;28;20310;-88
2021/05/12 09:57:35;;;;;;;6.45;2.40;;;;;;;;;;5098760;28;20035;-87
2021/05/12 10:00:01;;;;;;;6.13;2.90;;;;;;;;;;5098645;28;20314;-88
2021/05/12 10:02:27;;;;;;;6.10;2.20;;;;;;;;;;5098926;28;20028;-88
2021/05/12 10:05:00;;;;;;;6.68;2.42;;;;;;;;;;5098686;28;20107;-89
2021/05/12 10:07:27;;;;;;;7.88;2.72;;;;;;;;;;5098800;28;20085;-88
2021/05/12 10:09:54;;;;;;;7.00;1.90;;;;;;;;;;5097762;28;20463;-88
2021/05/12 10:12:21;;;;;;;6.40;2.00;;;;;;;;;;5098413;28;20031;-87
2021/05/12 10:14:51;;;;;;;5.93;1.92;;;;;;;;;;5098566;28;20348;-88
2021/05/12 10:17:18;;;;;;;9.93;2.03;;;;;;;;;;5098621;28;20031;-88
2021/05/12 10:19:46;;;;;;;5.68;1.92;;;;;;;;;;5098220;28;20040;-88
2021/05/12 10:22:13;;;;;;;7.22;2.20;;;;;;;;;;5098458;28;20028;-88
2021/05/12 10:24:40;;;;;;;8.25;2.10;;;;;;;;;;5097585;28;20024;-88
2021/05/12 10:27:11;;;;;;;10.45;2.05;;;;;;;;;;5098226;28;20028;-88
2021/05/12 10:29:38;;;;;;;6.38;2.92;;;;;;;;;;5098251;28;20119;-88
2021/05/12 10:32:23;;;;;;;3.20;1.85;;;;;;;;;;5098303;28;20031;-88
2021/05/12 10:34:59;;;;;;;7.68;2.38;;;;;;;;;;5098271;28;20016;-89
2021/05/12 10:37:29;;;;;;;5.25;2.17;;;;;;;;;;5097135;28;20020;-89
2021/05/12 10:40:15;;;;;;;4.80;2.08;;;;;;;;;;5098254;28;20024;-88
2021/05/12 10:45:22;;;;;;;5.15;2.30;;;;;;;;;;5098221;28;20032;-88
2021/05/12 10:47:48;;;;;;;8.38;2.40;;;;;;;;;;5097920;28;20052;-88
2021/05/12 10:50:14;;;;;;;10.50;2.67;;;;;;;;;;5097856;28;20422;-88
2021/05/12 10:53:00;;;;;;;5.18;2.03;;;;;;;;;;5098133;28;20026;-87
2021/05/12 10:55:46;;;;;;;8.90;2.67;;;;;;;;;;5097889;28;20028;-87
2021/05/12 10:58:15;;;;;;;4.97;2.53;;;;;;;;;;5098113;28;20071;-88
2021/05/12 11:01:00;;;;;;;5.25;2.00;;;;;;;;;;5097929;28;20052;-88
2021/05/12 11:03:46;;;;;;;7.85;2.35;;;;;;;;;;5097831;28;20048;-88
2021/05/12 11:06:13;;;;;;;6.30;2.00;;;;;;;;;;5097762;28;20024;-88
2021/05/12 11:08:57;;;;;;;8.98;2.38;;;;;;;;;;5096371;28;20322;-89
2021/05/12 11:11:23;;;;;;;6.00;2.67;;;;;;;;;;5097559;28;20028;-88
2021/05/12 11:13:49;;;;;;;7.00;2.78;;;;;;;;;;5097758;28;20398;-88
2021/05/12 11:16:22;;;;;;;7.80;2.38;;;;;;;;;;5097855;28;20318;-88
2021/05/12 11:18:52;;;;;;;9.38;2.60;;;;;;;;;;5097594;28;20016;-88
2021/05/12 11:24:03;;;;;;;9.45;2.88;;;;;;;;;;5101751;28;20039;-88
2021/05/12 11:26:59;;;;;;;7.38;2.47;;;;;;;;;;5102038;28;20024;-88
2021/05/12 11:31:58;;;;;;;7.45;2.47;;;;;;;;;;5101562;28;20460;-87
2021/05/12 11:37:28;;;;;;;10.10;2.60;;;;;;;;;;5101747;28;20027;-88
2021/05/12 11:39:56;;;;;;;15.68;2.72;;;;;;;;;;5101541;28;20016;-87
2021/05/12 11:42:32;;;;;;;7.88;2.40;;;;;;;;;;5101439;28;20035;-88
2021/05/12 11:45:09;;;;;;;4.25;2.08;;;;;;;;;;5101557;28;20024;-89
2021/05/12 11:47:43;;;;;;;4.63;2.30;;;;;;;;;;5101243;28;20074;-88
2021/05/12 11:50:19;;;;;;;6.88;2.35;;;;;;;;;;5101473;28;20111;-84
2021/05/12 11:52:46;;;;;;;8.60;1.73;;;;;;;;;;5100705;28;20073;-84
2021/05/12 11:55:12;;;;;;;7.32;1.42;;;;;;;;;;5100786;28;20126;-84
2021/05/12 11:57:38;;;;;;;3.67;2.13;;;;;;;;;;5100833;28;20085;-84
2021/05/12 12:00:07;;;;;;;6.38;1.60;;;;;;;;;;5100941;28;20102;-83
2021/05/12 12:02:33;;;;;;;12.10;1.90;;;;;;;;;;5100975;28;20403;-84
2021/05/12 12:05:02;;;;;;;4.43;1.85;;;;;;;;;;5100593;28;20020;-84
2021/05/12 12:07:29;;;;;;;8.15;2.15;;;;;;;;;;5099268;28;20032;-83
2021/05/12 12:10:06;;;;;;;8.70;2.13;;;;;;;;;;5100594;28;20088;-83
2021/05/12 12:12:33;;;;;;;17.48;2.50;;;;;;;;;;5100338;28;20414;-83
2021/05/12 12:15:12;;;;;;;16.23;2.60;;;;;;;;;;5100504;28;20020;-82
2021/05/12 12:17:38;;;;;;;16.52;2.67;;;;;;;;;;5100494;28;20073;-82
2021/05/12 12:20:07;;;;;;;9.05;3.10;;;;;;;;;;5100169;28;20016;-82
2021/05/12 12:22:33;;;;;;;19.73;2.50;;;;;;;;;;5100095;28;20471;-84
2021/05/12 12:25:16;;;;;;;10.50;2.72;;;;;;;;;;5100217;28;20394;-82
2021/05/12 12:27:43;;;;;;;10.90;2.58;;;;;;;;;;5100262;28;20036;-82
2021/05/12 12:30:10;;;;;;;4.35;1.80;;;;;;;;;;5099985;28;20119;-82
2021/05/12 12:32:36;;;;;;;13.13;2.15;;;;;;;;;;5098844;28;20111;-82
2021/05/12 12:35:03;;;;;;;6.78;2.20;;;;;;;;;;5099938;28;20386;-82
2021/05/12 12:37:34;;;;;;;6.45;2.00;;;;;;;;;;5099573;28;20024;-81
2021/05/12 12:40:08;;;;;;;5.43;1.95;;;;;;;;;;5099814;28;20023;-82
2021/05/12 12:42:36;;;;;;;5.88;2.17;;;;;;;;;;5099915;28;20020;-82
2021/05/12 12:45:02;;;;;;;7.60;1.80;;;;;;;;;;5099779;28;20030;-81
2021/05/12 12:47:28;;;;;;;7.72;1.60;;;;;;;;;;5099589;28;20143;-81
2021/05/12 12:50:02;;;;;;;3.83;1.88;;;;;;;;;;5099560;28;20024;-81
2021/05/12 12:52:32;;;;;;;10.00;3.15;;;;;;;;;;5099512;28;20028;-81
2021/05/12 12:55:14;;;;;;;5.53;1.30;;;;;;;;;;5098478;28;20364;-81
2021/05/12 12:57:42;;;;;;;4.60;1.60;;;;;;;;;;5099441;28;20406;-82
2021/05/12 13:00:09;;;;;;;6.05;2.78;;;;;;;;;;5099424;28;20389;-81
2021/05/12 13:02:36;;;;;;;6.50;2.38;;;;;;;;;;5099401;28;20081;-82
2021/05/12 13:05:14;;;;;;;6.28;1.73;;;;;;;;;;5099425;28;20371;-81
2021/05/12 13:07:41;;;;;;;5.80;1.50;;;;;;;;;;5099199;28;20020;-81
2021/05/12 13:10:26;;;;;;;7.25;1.45;;;;;;;;;;5097874;28;20028;-81
2021/05/12 13:12:53;;;;;;;3.58;1.45;;;;;;;;;;5099058;28;20028;-81
2021/05/12 13:15:26;;;;;;;6.05;1.23;;;;;;;;;;5097704;28;20445;-81
2021/05/12 13:18:01;;;;;;;7.45;2.17;;;;;;;;;;5099096;28;20052;-82
2021/05/12 13:20:28;;;;;;;6.07;1.30;;;;;;;;;;5099163;28;20047;-81
2021/05/12 13:23:05;;;;;;;3.55;1.13;;;;;;;;;;5099166;28;20020;-81
2021/05/12 13:25:32;;;;;;;3.58;0.95;;;;;;;;;;5098898;28;20032;-81
2021/05/12 13:27:59;;;;;;;5.32;1.10;;;;;;;;;;5098834;28;20024;-81
2021/05/12 13:30:25;;;;;;;7.65;1.60;;;;;;;;;;5099002;28;20028;-81
2021/05/12 13:32:51;;;;;;;4.93;1.13;;;;;;;;;;5097404;28;20071;-82
2021/05/12 13:35:17;;;;;;;3.75;1.15;;;;;;;;;;5098739;28;20031;-81
2021/05/12 13:37:47;;;;;;;6.68;1.02;;;;;;;;;;5097352;28;20438;-82
2021/05/12 13:40:13;;;;;;;6.22;2.33;;;;;;;;;;5098693;28;20035;-81
2021/05/12 13:42:39;;;;;;;10.50;3.80;;;;;;;;;;5098844;28;20024;-81
2021/05/12 13:45:05;;;;;;;7.38;2.42;;;;;;;;;;5097066;28;20123;-81
2021/05/12 13:47:31;;;;;;;7.65;2.25;;;;;;;;;;5098455;28;20066;-82
2021/05/12 13:49:57;;;;;;;6.57;1.75;;;;;;;;;;5098546;28;20024;-82
2021/05/12 13:52:29;;;;;;;3.95;1.13;;;;;;;;;;5096861;28;20487;-82
2021/05/12 13:55:02;;;;;;;;;;;;;;;;;;5098745;28;20024;-82
2021/05/12 13:58:25;;;;;;;5.68;1.35;;;;;;;;;;5098466;28;19911;-82
2021/05/12 14:03:10;;;;;;;6.43;2.38;;;;;;;;;;5036186;28;20029;-82
2021/05/12 14:05:38;;;;;;;6.95;2.15;;;;;;;;;;5036012;28;20128;-84
2021/05/12 14:08:05;;;;;;;18.48;2.85;;;;;;;;;;5036096;28;20068;-82
2021/05/12 14:10:38;;;;;;;4.35;1.60;;;;;;;;;;5035994;28;20053;-83
2021/05/12 14:13:19;;;;;;;5.90;1.85;;;;;;;;;;5035927;28;20482;-83
2021/05/12 14:18:31;;;;;;;7.40;1.30;;;;;;;;;;5036483;28;20098;-82
2021/05/12 14:20:57;;;;;;;4.32;1.20;;;;;;;;;;5036032;28;20034;-83
2021/05/12 14:23:23;;;;;;;4.88;1.30;;;;;;;;;;5035925;28;20400;-86
2021/05/12 14:25:49;;;;;;;7.45;1.25;;;;;;;;;;5020077;28;20037;-83
2021/05/12 14:28:17;;;;;;;8.38;1.70;;;;;;;;;;5035810;28;20045;-85
2021/05/12 14:30:46;;;;;;;5.13;1.65;;;;;;;;;;5036072;28;20064;-86
2021/05/12 14:33:13;;;;;;;7.65;1.50;;;;;;;;;;5035765;28;20335;-84
2021/05/12 14:35:39;;;;;;;14.63;1.90;;;;;;;;;;5035769;28;20022;-83
2021/05/12 14:38:06;;;;;;;12.57;1.50;;;;;;;;;;5019254;28;20026;-86
2021/05/12 14:40:32;;;;;;;3.15;1.30;;;;;;;;;;5076748;28;20311;-83
2021/05/12 14:42:59;;;;;;;3.75;1.35;;;;;;;;;;5097752;28;20451;-83
2021/05/12 14:45:25;;;;;;;3.00;1.60;;;;;;;;;;5097699;28;20028;-90
2021/05/12 14:47:55;;;;;;;9.77;2.00;;;;;;;;;;5096559;28;20052;-84
2021/05/12 14:50:27;;;;;;;11.52;2.88;;;;;;;;;;5097717;28;20401;-86
2021/05/12 14:52:56;;;;;;;6.35;1.55;;;;;;;;;;5097522;28;20020;-84
2021/05/12 15:03:26;;;;;;;5.32;1.80;;;;;;;;;;5096052;28;20503;-86
2021/05/12 15:08:37;;;;;;;6.07;1.75;;;;;;;;;;5096397;28;20066;-86
2021/05/12 15:11:03;;;;;;;6.97;1.50;;;;;;;;;;5096056;28;20089;-87
2021/05/12 15:13:30;;;;;;;2.20;1.23;;;;;;;;;;5096041;28;20483;-86
2021/05/12 15:15:56;;;;;;;4.93;1.60;;;;;;;;;;5095840;28;20042;-87